Time;durP1;ratioP1;P1;durP2;ratioP2;P2;SDS_P1;SDS_P2;PMS_P1;PMS_P2;Temp;Humidity;BMP_temperature;BMP_pressure;BME280_temperature;BME280_humidity;BME280_pressure;Samples;Min_cycle;Max_cycle;Signal;HPM_P1;HPM_P2
2023/12/31 00:01:10;;;;;;;2.50;1.65;;;9.60;86.80;;;;;;9177818;19;20021;-75
2023/12/31 00:04:23;;;;;;;4.28;2.20;;;9.60;86.80;;;;;;9177103;19;20011;-77
2023/12/31 00:07:29;;;;;;;7.88;1.85;;;9.60;86.70;;;;;;9173498;19;20019;-77
2023/12/31 00:10:41;;;;;;;2.45;1.80;;;9.60;86.70;;;;;;9174807;19;20022;-77
2023/12/31 00:13:47;;;;;;;8.57;2.17;;;9.70;86.80;;;;;;9174284;19;20015;-77
2023/12/31 00:16:55;;;;;;;4.95;2.20;;;9.60;86.70;;;;;;9175090;19;20018;-77
2023/12/31 00:20:00;;;;;;;3.92;1.90;;;9.70;86.70;;;;;;9174727;19;20452;-76
2023/12/31 00:23:11;;;;;;;5.00;1.80;;;9.70;86.70;;;;;;9174170;19;20063;-76
2023/12/31 00:26:20;;;;;;;3.78;1.98;;;9.60;86.60;;;;;;9175758;19;20074;-76
2023/12/31 00:29:28;;;;;;;5.03;2.05;;;9.60;86.60;;;;;;9173923;19;20025;-77
2023/12/31 00:32:35;;;;;;;5.72;2.63;;;9.70;86.60;;;;;;9176106;19;20017;-77
2023/12/31 00:35:48;;;;;;;7.50;2.00;;;9.60;86.50;;;;;;9173558;19;20021;-77
2023/12/31 00:39:03;;;;;;;4.68;2.10;;;9.60;86.50;;;;;;9173499;19;20003;-77
2023/12/31 00:42:20;;;;;;;6.05;2.20;;;9.60;86.50;;;;;;9174184;19;20013;-75
2023/12/31 00:45:26;;;;;;;8.48;1.80;;;9.60;86.50;;;;;;9173041;19;20662;-75
2023/12/31 00:48:35;;;;;;;8.20;2.30;;;9.60;86.50;;;;;;9175123;19;20356;-76
2023/12/31 00:51:40;;;;;;;4.57;1.80;;;9.60;86.50;;;;;;9172389;19;20011;-76
2023/12/31 00:54:53;;;;;;;2.33;1.48;;;9.60;87.00;;;;;;9172018;19;20010;-75
2023/12/31 00:58:07;;;;;;;4.90;2.03;;;9.60;86.40;;;;;;9173003;19;20495;-75
2023/12/31 01:01:15;;;;;;;3.13;1.90;;;9.50;86.30;;;;;;9174457;19;20018;-75
2023/12/31 01:04:22;;;;;;;2.88;1.80;;;9.50;86.40;;;;;;9173423;19;20074;-75
2023/12/31 01:07:30;;;;;;;3.75;2.03;;;9.50;86.40;;;;;;9172121;19;20014;-75
2023/12/31 01:10:36;;;;;;;5.60;2.47;;;9.50;86.40;;;;;;9171453;19;20010;-75
2023/12/31 01:13:46;;;;;;;3.97;1.80;;;9.50;86.40;;;;;;9173825;19;20025;-76
2023/12/31 01:16:52;;;;;;;5.25;1.50;;;9.50;86.50;;;;;;9172418;19;20014;-76
2023/12/31 01:19:59;;;;;;;4.32;1.83;;;9.50;86.50;;;;;;9173090;19;20017;-75
2023/12/31 01:23:06;;;;;;;2.20;1.20;;;9.50;86.60;;;;;;9172745;19;20467;-75
2023/12/31 01:26:15;;;;;;;2.47;1.40;;;9.50;87.10;;;;;;9173427;19;20517;-75
2023/12/31 01:29:23;;;;;;;3.58;1.80;;;9.50;86.60;;;;;;9171297;19;20903;-75
2023/12/31 01:32:31;;;;;;;3.15;1.30;;;9.50;86.60;;;;;;9169968;19;20048;-75
2023/12/31 01:35:38;;;;;;;2.13;1.30;;;9.60;86.70;;;;;;9170741;19;20021;-75
2023/12/31 01:38:46;;;;;;;2.40;1.00;;;9.50;86.70;;;;;;9170325;19;20070;-75
2023/12/31 01:41:53;;;;;;;1.25;0.90;;;9.60;86.80;;;;;;9173552;19;20030;-77
2023/12/31 01:45:11;;;;;;;2.25;1.00;;;9.60;86.70;;;;;;9171835;19;20014;-78
2023/12/31 01:48:21;;;;;;;2.83;1.00;;;9.60;86.70;;;;;;9173485;19;20018;-76
2023/12/31 01:51:29;;;;;;;1.05;0.95;;;9.60;86.80;;;;;;9171357;19;20051;-76
2023/12/31 01:54:37;;;;;;;2.50;0.90;;;9.70;86.80;;;;;;9169967;19;20010;-76
2023/12/31 01:57:52;;;;;;;1.40;0.93;;;9.70;86.80;;;;;;9174819;19;20097;-76
2023/12/31 02:01:00;;;;;;;2.42;0.75;;;9.70;86.70;;;;;;9172929;19;20056;-76
2023/12/31 02:04:15;;;;;;;2.33;1.33;;;9.70;86.70;;;;;;9172282;19;20041;-77
2023/12/31 02:07:30;;;;;;;3.00;1.10;;;9.80;86.80;;;;;;9168920;19;20028;-76
2023/12/31 02:10:38;;;;;;;1.67;1.13;;;9.80;86.80;;;;;;9173015;19;20086;-77
2023/12/31 02:13:49;;;;;;;4.22;1.23;;;9.80;86.70;;;;;;9172164;19;20015;-76
2023/12/31 02:16:57;;;;;;;2.42;1.20;;;9.80;86.80;;;;;;9172449;19;20021;-76
2023/12/31 02:20:06;;;;;;;1.38;0.85;;;9.80;86.80;;;;;;9171412;19;20082;-76
2023/12/31 02:23:14;;;;;;;1.35;1.00;;;9.90;86.80;;;;;;9161288;19;20052;-76
2023/12/31 02:26:27;;;;;;;5.07;1.25;;;9.90;86.80;;;;;;9170569;19;20021;-78
2023/12/31 02:29:33;;;;;;;2.08;1.10;;;9.90;86.80;;;;;;9171117;19;20014;-77
2023/12/31 02:32:41;;;;;;;2.00;1.20;;;9.90;86.80;;;;;;9170654;19;20464;-77
2023/12/31 02:35:51;;;;;;;1.70;1.00;;;9.90;86.70;;;;;;9168436;19;20099;-77
2023/12/31 02:39:03;;;;;;;2.88;1.20;;;9.90;86.70;;;;;;9171970;19;20508;-76
2023/12/31 02:42:12;;;;;;;6.90;2.83;;;10.00;86.60;;;;;;9169183;19;20018;-76
2023/12/31 02:45:33;;;;;;;3.78;1.10;;;9.90;86.50;;;;;;9176009;19;20013;-76
2023/12/31 02:48:44;;;;;;;7.15;1.67;;;9.90;86.50;;;;;;9174320;19;20086;-76
2023/12/31 02:51:54;;;;;;;5.40;1.45;;;9.90;86.50;;;;;;9179241;19;20019;-76
2023/12/31 02:55:02;;;;;;;2.22;1.23;;;9.90;86.50;;;;;;9177046;19;20468;-77
2023/12/31 02:58:15;;;;;;;3.22;1.20;;;10.00;86.60;;;;;;9179594;19;20018;-77
2023/12/31 03:01:21;;;;;;;1.75;1.17;;;10.00;86.50;;;;;;9177917;19;20021;-76
2023/12/31 03:04:37;;;;;;;3.17;1.40;;;9.90;86.40;;;;;;9177111;19;20015;-77
2023/12/31 03:07:44;;;;;;;3.67;1.48;;;10.00;86.50;;;;;;9174839;19;20070;-77
2023/12/31 03:10:55;;;;;;;2.17;1.10;;;9.90;87.00;;;;;;9176329;19;20480;-75
2023/12/31 03:14:04;;;;;;;5.78;1.52;;;9.90;86.30;;;;;;9179592;19;20073;-77
2023/12/31 03:17:18;;;;;;;3.80;1.85;;;9.90;86.40;;;;;;9174438;19;20040;-77
2023/12/31 03:20:26;;;;;;;3.22;1.30;;;9.90;86.40;;;;;;9179369;19;20007;-76
2023/12/31 03:23:36;;;;;;;8.02;2.47;;;9.90;86.30;;;;;;9175647;19;20014;-75
2023/12/31 03:26:44;;;;;;;1.85;1.15;;;9.80;86.20;;;;;;9174704;19;20026;-76
2023/12/31 03:29:57;;;;;;;2.38;1.55;;;9.80;86.20;;;;;;9178168;19;20847;-76
2023/12/31 03:33:24;;;;;;;1.88;1.10;;;9.80;86.20;;;;;;9175504;19;20018;-77
2023/12/31 03:36:36;;;;;;;3.20;1.10;;;9.80;86.20;;;;;;9172981;19;20364;-77
2023/12/31 03:39:54;;;;;;;6.22;1.55;;;9.80;86.20;;;;;;9171985;19;20017;-75
2023/12/31 03:43:08;;;;;;;1.50;1.30;;;9.80;86.30;;;;;;9173141;19;20046;-78
2023/12/31 03:46:16;;;;;;;2.67;1.42;;;9.80;86.20;;;;;;9172017;19;20020;-75
2023/12/31 03:49:27;;;;;;;4.97;1.70;;;9.80;86.20;;;;;;9168764;19;20034;-76
2023/12/31 03:52:33;;;;;;;3.97;1.35;;;9.80;86.20;;;;;;9172678;19;20110;-76
2023/12/31 03:55:40;;;;;;;5.00;1.55;;;9.80;86.20;;;;;;9170278;19;20026;-75
2023/12/31 03:58:51;;;;;;;2.28;1.48;;;9.80;86.20;;;;;;9174112;19;20019;-76
2023/12/31 04:02:02;;;;;;;2.73;1.40;;;9.80;86.10;;;;;;9176624;19;20042;-75
2023/12/31 04:05:14;;;;;;;2.42;1.50;;;9.80;86.10;;;;;;9174637;19;20021;-76
2023/12/31 04:08:28;;;;;;;8.00;2.63;;;9.80;86.10;;;;;;9175941;19;20014;-75
2023/12/31 04:11:42;;;;;;;3.75;1.95;;;9.80;86.00;;;;;;9173821;19;20119;-76
2023/12/31 04:14:50;;;;;;;8.70;1.67;;;9.70;86.00;;;;;;9174112;19;20491;-76
2023/12/31 04:18:09;;;;;;;4.45;1.75;;;9.70;86.00;;;;;;9173956;19;20010;-75
2023/12/31 04:21:19;;;;;;;2.67;1.60;;;9.70;86.00;;;;;;9174528;19;20018;-77
2023/12/31 04:24:24;;;;;;;2.38;1.35;;;9.70;86.10;;;;;;9173868;19;20130;-75
2023/12/31 04:27:35;;;;;;;1.70;1.40;;;9.70;86.00;;;;;;9173548;19;20016;-75
2023/12/31 04:30:41;;;;;;;3.83;1.35;;;9.70;86.00;;;;;;9173009;19;20053;-75
2023/12/31 04:33:52;;;;;;;2.78;1.90;;;9.70;85.90;;;;;;9175098;19;20010;-75
2023/12/31 04:36:57;;;;;;;3.25;1.40;;;9.70;85.90;;;;;;9173871;19;20015;-76
2023/12/31 04:40:06;;;;;;;5.15;1.50;;;9.60;85.90;;;;;;9174240;19;20798;-75
2023/12/31 04:43:12;;;;;;;2.50;1.58;;;9.70;85.90;;;;;;9174624;19;20476;-76
2023/12/31 04:46:23;;;;;;;4.00;1.75;;;9.60;85.80;;;;;;9174644;19;20483;-76
2023/12/31 04:49:32;;;;;;;1.70;1.42;;;9.60;86.40;;;;;;9170241;19;20022;-75
2023/12/31 04:52:39;;;;;;;5.47;1.70;;;9.60;85.90;;;;;;9174517;19;20014;-75
2023/12/31 04:55:45;;;;;;;4.53;1.52;;;9.60;85.90;;;;;;9173656;19;20017;-75
2023/12/31 04:58:55;;;;;;;2.50;1.42;;;9.60;85.90;;;;;;9174123;19;20492;-75
2023/12/31 05:02:00;;;;;;;3.38;1.80;;;9.60;85.90;;;;;;9173121;19;20002;-74
2023/12/31 05:05:31;;;;;;;5.28;1.52;;;9.60;85.80;;;;;;9174450;19;20107;-75
2023/12/31 05:08:37;;;;;;;1.48;1.30;;;9.60;85.80;;;;;;9172604;19;20022;-76
2023/12/31 05:11:44;;;;;;;5.45;1.63;;;9.60;85.80;;;;;;9170039;19;20021;-75
2023/12/31 05:14:50;;;;;;;3.55;1.50;;;9.60;85.80;;;;;;9173996;19;20022;-75
2023/12/31 05:17:58;;;;;;;2.28;1.70;;;9.60;85.80;;;;;;9172759;19;20425;-76
2023/12/31 05:21:07;;;;;;;3.85;1.65;;;9.60;85.70;;;;;;9171541;19;20013;-75
2023/12/31 05:24:14;;;;;;;2.60;1.30;;;9.50;85.70;;;;;;9169977;19;20686;-75
2023/12/31 05:27:21;;;;;;;2.47;1.48;;;9.60;85.70;;;;;;9173454;19;20054;-77
2023/12/31 05:30:35;;;;;;;2.67;1.67;;;9.50;85.60;;;;;;9171296;19;20836;-75
2023/12/31 05:33:43;;;;;;;4.97;1.40;;;9.50;85.70;;;;;;9172575;19;20014;-75
2023/12/31 05:36:53;;;;;;;3.72;1.70;;;9.50;85.60;;;;;;9172066;19;20014;-75
2023/12/31 05:39:58;;;;;;;2.40;1.80;;;9.50;85.60;;;;;;9172379;19;20029;-75
2023/12/31 05:43:06;;;;;;;2.90;1.98;;;9.50;85.60;;;;;;9172497;19;20014;-76
2023/12/31 05:46:12;;;;;;;5.78;1.70;;;9.50;85.70;;;;;;9172035;19;20014;-76
2023/12/31 05:49:19;;;;;;;5.80;1.80;;;9.50;85.70;;;;;;9168934;19;20011;-75
2023/12/31 05:52:28;;;;;;;5.18;1.83;;;9.50;85.70;;;;;;9171673;19;20014;-75
2023/12/31 05:55:35;;;;;;;3.10;1.58;;;9.50;85.70;;;;;;9171024;19;20476;-75
2023/12/31 05:58:42;;;;;;;4.30;1.95;;;9.50;85.70;;;;;;9167579;19;20074;-75
2023/12/31 06:01:49;;;;;;;4.72;1.83;;;9.50;85.70;;;;;;9172274;19;20014;-74
2023/12/31 06:04:55;;;;;;;3.28;1.80;;;9.50;85.70;;;;;;9171104;19;20018;-75
2023/12/31 06:08:06;;;;;;;3.58;1.52;;;9.50;85.70;;;;;;9168242;19;20018;-75
2023/12/31 06:11:12;;;;;;;2.92;1.55;;;9.50;85.70;;;;;;9170882;19;20023;-75
2023/12/31 06:14:20;;;;;;;5.45;2.05;;;9.50;85.70;;;;;;9170696;19;20011;-75
2023/12/31 06:17:25;;;;;;;3.55;1.92;;;9.50;85.70;;;;;;9170549;19;20014;-76
2023/12/31 06:20:33;;;;;;;3.70;1.77;;;9.50;85.80;;;;;;9176166;19;20026;-75
2023/12/31 06:23:41;;;;;;;2.20;1.58;;;9.50;85.70;;;;;;9181434;19;20030;-75
2023/12/31 06:26:48;;;;;;;5.50;1.65;;;9.50;85.70;;;;;;9179949;19;20026;-75
2023/12/31 06:29:54;;;;;;;6.10;1.70;;;9.50;85.70;;;;;;9180885;19;20485;-75
2023/12/31 06:33:01;;;;;;;4.72;1.63;;;9.50;85.70;;;;;;9181071;19;20018;-77
2023/12/31 06:36:08;;;;;;;7.85;1.77;;;9.60;85.70;;;;;;9179897;19;20372;-75
2023/12/31 06:39:20;;;;;;;3.08;1.60;;;9.60;85.70;;;;;;9179192;19;20035;-75
2023/12/31 06:42:25;;;;;;;5.78;1.55;;;9.60;85.60;;;;;;9181164;19;20014;-75
2023/12/31 06:45:33;;;;;;;3.42;2.00;;;9.60;85.60;;;;;;9179540;19;20011;-75
2023/12/31 06:48:43;;;;;;;4.95;1.90;;;9.60;85.60;;;;;;9178457;19;20483;-75
2023/12/31 06:51:51;;;;;;;2.72;1.60;;;9.60;85.50;;;;;;9182303;19;20030;-76
2023/12/31 06:55:02;;;;;;;2.70;1.50;;;9.60;85.50;;;;;;9180517;19;20393;-74
2023/12/31 06:58:09;;;;;;;4.22;1.95;;;9.60;85.50;;;;;;9178496;19;20125;-75
2023/12/31 07:01:15;;;;;;;4.43;1.80;;;9.60;85.50;;;;;;9179303;19;20018;-75
2023/12/31 07:04:23;;;;;;;2.05;1.75;;;9.60;85.50;;;;;;9179558;19;20018;-75
2023/12/31 07:07:29;;;;;;;2.03;1.45;;;9.70;85.50;;;;;;9177535;19;20107;-75
2023/12/31 07:10:39;;;;;;;3.88;1.50;;;9.70;85.50;;;;;;9177900;19;20021;-75
2023/12/31 07:13:45;;;;;;;3.38;1.60;;;9.70;85.50;;;;;;9180749;19;20497;-74
2023/12/31 07:16:52;;;;;;;2.72;1.50;;;9.70;85.50;;;;;;9177490;19;20138;-76
2023/12/31 07:19:58;;;;;;;4.97;1.77;;;9.70;85.50;;;;;;9179079;19;20014;-74
2023/12/31 07:23:06;;;;;;;3.97;1.65;;;9.70;85.50;;;;;;9180605;19;20014;-75
2023/12/31 07:26:14;;;;;;;5.05;1.90;;;9.70;85.50;;;;;;9178628;19;20010;-76
2023/12/31 07:29:22;;;;;;;2.80;1.52;;;9.70;85.40;;;;;;9178963;19;20361;-75
2023/12/31 07:32:28;;;;;;;2.85;1.83;;;9.70;86.00;;;;;;9180192;19;20015;-76
2023/12/31 07:35:36;;;;;;;2.55;1.65;;;9.80;85.40;;;;;;9179410;19;20019;-76
2023/12/31 07:38:42;;;;;;;2.33;1.20;;;9.70;85.30;;;;;;9178519;19;20490;-75
2023/12/31 07:41:54;;;;;;;5.07;1.70;;;9.80;85.30;;;;;;9180026;19;20014;-75
2023/12/31 07:44:59;;;;;;;5.93;2.35;;;9.80;85.30;;;;;;9179583;19;20014;-75
2023/12/31 07:48:10;;;;;;;2.97;2.05;;;9.80;85.30;;;;;;9180093;19;20018;-75
2023/12/31 07:51:15;;;;;;;1.95;1.50;;;9.80;85.30;;;;;;9175874;19;20522;-75
2023/12/31 07:54:23;;;;;;;4.03;2.40;;;9.80;85.20;;;;;;9179353;19;20022;-75
2023/12/31 07:57:31;;;;;;;3.92;1.88;;;9.80;85.20;;;;;;9178836;19;20011;-75
2023/12/31 08:00:39;;;;;;;3.03;2.10;;;9.90;85.30;;;;;;9177508;19;20018;-77
2023/12/31 08:03:44;;;;;;;6.40;1.77;;;9.90;85.20;;;;;;9179199;19;20109;-75
2023/12/31 08:06:52;;;;;;;3.90;1.92;;;9.80;85.10;;;;;;9176588;19;20014;-75
2023/12/31 08:09:58;;;;;;;6.90;2.15;;;9.80;85.10;;;;;;9177786;19;20555;-75
2023/12/31 08:13:08;;;;;;;2.38;1.73;;;9.90;85.20;;;;;;9176691;19;20394;-75
2023/12/31 08:16:14;;;;;;;4.28;1.90;;;9.80;85.10;;;;;;9177090;19;20046;-75
2023/12/31 08:19:21;;;;;;;5.30;1.90;;;9.80;85.10;;;;;;9177200;19;21591;-75
2023/12/31 08:22:29;;;;;;;3.65;2.05;;;9.90;85.10;;;;;;9176651;19;20541;-75
2023/12/31 08:25:36;;;;;;;3.55;1.95;;;9.90;85.10;;;;;;9178221;19;20022;-76
2023/12/31 08:28:45;;;;;;;5.22;2.20;;;9.90;85.10;;;;;;9175477;19;20010;-76
2023/12/31 08:31:53;;;;;;;4.05;1.80;;;9.90;85.00;;;;;;9176553;19;20010;-75
2023/12/31 08:34:59;;;;;;;2.47;1.80;;;9.90;85.00;;;;;;9175742;19;20037;-75
2023/12/31 08:38:07;;;;;;;3.00;1.70;;;9.90;85.10;;;;;;9177210;19;20381;-75
2023/12/31 08:41:12;;;;;;;3.40;2.10;;;9.90;85.10;;;;;;9175186;19;20015;-76
2023/12/31 08:44:22;;;;;;;3.08;2.10;;;9.90;85.00;;;;;;9175144;19;20074;-75
2023/12/31 08:47:28;;;;;;;4.88;2.38;;;10.00;85.00;;;;;;9176525;19;20010;-73
2023/12/31 08:50:37;;;;;;;3.03;2.63;;;10.00;85.00;;;;;;9171942;19;20011;-74
2023/12/31 08:53:46;;;;;;;4.05;2.35;;;10.00;85.00;;;;;;9176642;19;20474;-74
2023/12/31 08:56:53;;;;;;;7.38;3.75;;;10.00;85.00;;;;;;9175435;19;20014;-74
2023/12/31 09:00:02;;;;;;;5.70;2.58;;;10.10;85.00;;;;;;9174860;19;20373;-74
2023/12/31 09:03:10;;;;;;;12.27;3.22;;;10.10;84.90;;;;;;9176078;19;20011;-74
2023/12/31 09:06:18;;;;;;;5.78;3.15;;;10.10;85.00;;;;;;9172610;19;20038;-74
2023/12/31 09:09:26;;;;;;;2.63;2.17;;;10.20;85.00;;;;;;9171688;19;20014;-74
2023/12/31 09:12:32;;;;;;;3.58;2.50;;;10.20;85.00;;;;;;9176557;19;20051;-74
2023/12/31 09:15:43;;;;;;;6.53;2.17;;;10.30;84.90;;;;;;9174718;19;20404;-73
2023/12/31 09:18:49;;;;;;;4.07;2.13;;;10.30;84.90;;;;;;9173390;19;20492;-73
2023/12/31 09:21:56;;;;;;;4.35;2.53;;;10.30;84.80;;;;;;9174749;19;20011;-74
2023/12/31 09:25:02;;;;;;;3.03;2.38;;;10.40;84.90;;;;;;9173590;19;20022;-74
2023/12/31 09:28:10;;;;;;;3.45;2.28;;;10.40;84.80;;;;;;9174676;19;20010;-71
2023/12/31 09:31:20;;;;;;;5.68;2.53;;;10.40;84.80;;;;;;9174064;19;20011;-71
2023/12/31 09:34:28;;;;;;;6.18;2.55;;;10.50;84.70;;;;;;9174910;19;20018;-72
2023/12/31 09:37:35;;;;;;;7.70;2.42;;;10.50;84.70;;;;;;9174231;19;20073;-71
2023/12/31 09:40:44;;;;;;;5.82;2.72;;;10.60;84.70;;;;;;9172860;19;20022;-70
2023/12/31 09:43:54;;;;;;;4.78;2.88;;;10.60;85.20;;;;;;9174549;19;20536;-74
2023/12/31 09:47:08;;;;;;;4.18;2.67;;;10.60;84.60;;;;;;9174509;19;20030;-74
2023/12/31 09:50:24;;;;;;;3.72;2.45;;;10.70;84.60;;;;;;9168644;19;20443;-76
2023/12/31 09:53:39;;;;;;;5.75;1.98;;;10.70;84.80;;;;;;9172783;19;20018;-71
2023/12/31 09:56:45;;;;;;;4.38;2.90;;;10.80;84.50;;;;;;9172678;19;20019;-65
2023/12/31 09:59:54;;;;;;;9.27;3.33;;;10.80;84.40;;;;;;9171708;19;20010;-73
2023/12/31 10:03:04;;;;;;;6.32;3.38;;;10.80;84.30;;;;;;9171195;19;20018;-72
2023/12/31 10:06:13;;;;;;;4.43;2.53;;;10.90;84.30;;;;;;9169579;19;20920;-74
2023/12/31 10:09:23;;;;;;;6.72;2.80;;;10.90;84.30;;;;;;9171493;19;20034;-72
2023/12/31 10:12:32;;;;;;;3.78;2.15;;;11.00;84.30;;;;;;9175152;19;20591;-72
2023/12/31 10:15:37;;;;;;;5.53;3.22;;;11.00;84.20;;;;;;9171885;19;20488;-72
2023/12/31 10:18:47;;;;;;;6.43;3.15;;;11.10;84.30;;;;;;9173040;19;20010;-73
2023/12/31 10:21:53;;;;;;;3.97;2.63;;;11.10;84.10;;;;;;9171519;19;20054;-72
2023/12/31 10:25:14;;;;;;;5.57;2.80;;;11.20;84.10;;;;;;9172028;19;20456;-73
2023/12/31 10:28:20;;;;;;;5.75;2.40;;;11.30;83.90;;;;;;9174103;19;20408;-74
2023/12/31 10:31:30;;;;;;;6.90;3.38;;;11.30;83.80;;;;;;9173219;19;20017;-73
2023/12/31 10:34:40;;;;;;;6.72;3.00;;;11.30;83.80;;;;;;9173452;19;20475;-74
2023/12/31 10:37:48;;;;;;;8.50;2.80;;;11.30;83.60;;;;;;9172483;19;20010;-74
2023/12/31 10:40:53;;;;;;;2.85;1.88;;;11.30;83.70;;;;;;9170562;19;20014;-73
2023/12/31 10:44:04;;;;;;;4.60;1.98;;;11.40;83.60;;;;;;9172721;19;20023;-73
2023/12/31 10:47:10;;;;;;;5.85;2.83;;;11.40;83.50;;;;;;9173266;19;20468;-72
2023/12/31 10:50:24;;;;;;;8.68;3.67;;;11.40;83.50;;;;;;9168952;19;20025;-72
2023/12/31 10:53:33;;;;;;;4.15;2.47;;;11.50;83.50;;;;;;9169693;19;20055;-72
2023/12/31 10:56:42;;;;;;;2.92;2.08;;;11.50;83.40;;;;;;9172207;19;20010;-73
2023/12/31 10:59:50;;;;;;;3.65;2.20;;;11.50;83.30;;;;;;9170836;19;20027;-72
2023/12/31 11:02:59;;;;;;;4.97;1.83;;;11.60;83.30;;;;;;9163097;19;20476;-73
2023/12/31 11:06:08;;;;;;;3.90;1.73;;;11.50;83.80;;;;;;9173075;19;20025;-73
2023/12/31 11:09:17;;;;;;;5.25;1.75;;;11.60;83.10;;;;;;9172488;19;20022;-73
2023/12/31 11:12:23;;;;;;;5.07;2.00;;;11.60;83.10;;;;;;9174146;19;20018;-73
2023/12/31 11:15:32;;;;;;;3.53;1.80;;;11.60;83.20;;;;;;9177615;19;20014;-72
2023/12/31 11:19:05;;;;;;;2.13;1.65;;;11.60;83.10;;;;;;9177768;19;20044;-73
2023/12/31 11:22:36;;;;;;;5.07;1.58;;;11.60;83.00;;;;;;9176382;19;20018;-74
2023/12/31 11:25:47;;;;;;;2.00;1.45;;;11.60;83.00;;;;;;9177628;19;20010;-74
2023/12/31 11:28:57;;;;;;;2.58;1.80;;;11.50;83.00;;;;;;9178276;19;20014;-73
2023/12/31 11:32:03;;;;;;;1.80;1.40;;;11.50;83.10;;;;;;9179151;19;20010;-73
2023/12/31 11:35:13;;;;;;;5.88;1.90;;;11.60;83.10;;;;;;9179231;19;20021;-72
2023/12/31 11:38:21;;;;;;;13.27;4.55;;;11.60;83.10;;;;;;9175896;19;20033;-72
2023/12/31 11:41:34;;;;;;;5.78;2.42;;;11.50;83.00;;;;;;9175529;19;20030;-72
2023/12/31 11:44:40;;;;;;;3.78;2.05;;;11.50;83.10;;;;;;9176683;19;20015;-73
2023/12/31 11:47:53;;;;;;;;;;;11.50;83.00;;;;;;9174634;19;20391;-73
2023/12/31 11:51:03;;;;;;;5.20;2.45;;;11.50;83.10;;;;;;9170356;19;19937;-72
2023/12/31 11:54:14;;;;;;;3.88;1.88;;;11.60;83.10;;;;;;9170646;19;20006;-75
2023/12/31 11:57:23;;;;;;;2.13;1.30;;;11.50;83.00;;;;;;9178158;19;20019;-74
2023/12/31 12:00:30;;;;;;;4.88;1.83;;;11.50;83.00;;;;;;9182226;19;20018;-73
2023/12/31 12:03:39;;;;;;;2.10;1.35;;;11.50;83.10;;;;;;9183741;19;20051;-73
2023/12/31 12:06:47;;;;;;;2.08;0.95;;;11.40;83.00;;;;;;9177568;19;20019;-72
2023/12/31 12:09:55;;;;;;;5.25;1.13;;;11.40;82.90;;;;;;9178433;19;20014;-74
2023/12/31 12:13:03;;;;;;;1.60;1.15;;;11.40;82.90;;;;;;9182725;19;20676;-73
2023/12/31 12:16:10;;;;;;;9.05;1.65;;;11.30;82.90;;;;;;9180186;19;20416;-74
2023/12/31 12:19:19;;;;;;;1.38;1.20;;;11.30;83.00;;;;;;9182494;19;20026;-72
2023/12/31 12:22:24;;;;;;;6.95;1.65;;;11.20;83.00;;;;;;9180380;19;20010;-74
2023/12/31 12:25:35;;;;;;;1.73;1.35;;;11.20;83.10;;;;;;9181358;19;20022;-73
2023/12/31 12:28:42;;;;;;;1.77;1.23;;;11.20;83.00;;;;;;9186304;19;20018;-72
2023/12/31 12:31:51;;;;;;;1.90;1.17;;;11.20;83.00;;;;;;9192162;19;20021;-73
2023/12/31 12:35:01;;;;;;;1.65;0.90;;;11.20;83.10;;;;;;9189499;19;20058;-74
2023/12/31 12:38:09;;;;;;;3.28;1.58;;;11.20;83.10;;;;;;9173867;19;20015;-74
2023/12/31 12:41:23;;;;;;;4.18;1.50;;;11.10;83.10;;;;;;9178551;19;20373;-72
2023/12/31 12:44:31;;;;;;;7.82;2.72;;;11.10;83.10;;;;;;9180216;19;20007;-73
2023/12/31 12:47:39;;;;;;;1.52;1.10;;;11.10;83.20;;;;;;9183808;19;20381;-75
2023/12/31 12:50:49;;;;;;;6.68;1.30;;;11.00;83.10;;;;;;9180859;19;20048;-73
2023/12/31 12:53:58;;;;;;;2.15;1.10;;;11.00;83.20;;;;;;9187792;19;20115;-74
2023/12/31 12:57:12;;;;;;;;;;;11.00;83.20;;;;;;9186880;19;20010;-72
2023/12/31 13:00:19;;;;;;;1.67;1.08;;;10.90;83.20;;;;;;9177527;19;19922;-73
2023/12/31 13:03:29;;;;;;;5.90;1.45;;;10.90;83.30;;;;;;9177557;19;20392;-73
2023/12/31 13:06:37;;;;;;;4.90;1.60;;;10.80;83.20;;;;;;9174116;19;20018;-74
2023/12/31 13:09:45;;;;;;;8.15;3.10;;;10.80;83.30;;;;;;9173323;19;20106;-72
2023/12/31 13:12:53;;;;;;;4.30;1.40;;;10.80;83.30;;;;;;9171105;19;20521;-74
2023/12/31 13:16:01;;;;;;;4.75;1.77;;;10.70;83.30;;;;;;9175365;19;20026;-74
2023/12/31 13:19:18;;;;;;;4.55;1.85;;;10.70;83.40;;;;;;9167440;19;20354;-73
2023/12/31 13:22:31;;;;;;;14.50;5.43;;;10.70;83.40;;;;;;9172070;19;20006;-74
2023/12/31 13:25:42;;;;;;;7.25;2.05;;;10.60;83.50;;;;;;9175021;19;20335;-76
2023/12/31 13:28:56;;;;;;;2.78;1.00;;;10.70;83.60;;;;;;9174510;19;20477;-72
2023/12/31 13:32:06;;;;;;;3.90;2.03;;;10.70;83.60;;;;;;9176754;19;20018;-74
2023/12/31 13:35:15;;;;;;;2.50;0.85;;;10.70;83.60;;;;;;9175610;19;20034;-74
2023/12/31 13:38:22;;;;;;;3.55;1.10;;;10.60;83.60;;;;;;9175802;19;20646;-74
2023/12/31 13:41:30;;;;;;;2.00;1.00;;;10.60;83.60;;;;;;9173252;19;20014;-73
2023/12/31 13:44:38;;;;;;;3.25;1.17;;;10.60;83.70;;;;;;9173071;19;20094;-73
2023/12/31 13:47:46;;;;;;;1.45;1.20;;;10.60;83.70;;;;;;9175012;19;20014;-72
2023/12/31 13:50:52;;;;;;;2.67;1.15;;;10.60;83.70;;;;;;9167151;19;20015;-74
2023/12/31 13:53:59;;;;;;;3.00;0.73;;;10.60;83.70;;;;;;9173112;19;20492;-73
2023/12/31 13:57:05;;;;;;;4.90;1.35;;;10.60;83.70;;;;;;9172155;19;20027;-73
2023/12/31 14:00:17;;;;;;;4.78;1.65;;;10.60;83.60;;;;;;9173349;19;20338;-73
2023/12/31 14:03:25;;;;;;;4.57;1.50;;;10.60;83.60;;;;;;9171878;19;20439;-73
2023/12/31 14:06:33;;;;;;;2.78;0.70;;;10.60;83.60;;;;;;9171821;19;20021;-72
2023/12/31 14:09:39;;;;;;;4.93;1.05;;;10.60;83.60;;;;;;9171323;19;20015;-69
2023/12/31 14:12:47;;;;;;;3.15;1.10;;;10.60;83.60;;;;;;9174339;19;20018;-69
2023/12/31 14:15:55;;;;;;;3.38;1.92;;;10.60;83.60;;;;;;9173479;19;20019;-69
2023/12/31 14:19:03;;;;;;;9.50;3.95;;;10.60;83.60;;;;;;9172446;19;20034;-69
2023/12/31 14:22:13;;;;;;;6.30;3.58;;;10.60;83.60;;;;;;9171190;19;20048;-69
2023/12/31 14:25:20;;;;;;;6.10;2.15;;;10.60;83.50;;;;;;9170561;19;20010;-69
2023/12/31 14:28:26;;;;;;;4.53;2.25;;;10.60;83.40;;;;;;9170995;19;20011;-68
2023/12/31 14:31:36;;;;;;;3.10;1.42;;;10.60;83.40;;;;;;9172720;19;20011;-68
2023/12/31 14:34:42;;;;;;;6.28;2.45;;;10.60;83.40;;;;;;9173568;19;20468;-68
2023/12/31 14:37:50;;;;;;;24.38;7.65;;;10.50;83.30;;;;;;9171688;19;20017;-69
2023/12/31 14:40:58;;;;;;;2.38;1.10;;;10.50;83.20;;;;;;9176610;19;20460;-69
2023/12/31 14:44:08;;;;;;;5.25;2.42;;;10.50;83.20;;;;;;9182468;19;20022;-68
2023/12/31 14:47:21;;;;;;;8.10;1.60;;;10.40;83.10;;;;;;9177598;19;20059;-70
2023/12/31 14:50:31;;;;;;;4.82;1.83;;;10.40;83.10;;;;;;9177021;19;20508;-71
2023/12/31 14:53:36;;;;;;;5.10;1.25;;;10.40;83.10;;;;;;9180290;19;20025;-72
2023/12/31 14:56:48;;;;;;;3.88;1.40;;;10.30;83.00;;;;;;9182156;19;20356;-74
2023/12/31 14:59:56;;;;;;;4.82;1.45;;;10.30;83.00;;;;;;9179547;19;20430;-72
2023/12/31 15:03:10;;;;;;;6.25;1.27;;;10.30;83.10;;;;;;9178733;19;20021;-72
2023/12/31 15:06:16;;;;;;;4.53;1.35;;;10.30;83.00;;;;;;9180094;19;20021;-70
2023/12/31 15:09:24;;;;;;;11.90;2.80;;;10.20;82.90;;;;;;9179014;19;20477;-70
2023/12/31 15:12:30;;;;;;;11.00;2.00;;;10.20;83.00;;;;;;9179245;19;20023;-70
2023/12/31 15:15:49;;;;;;;9.88;2.42;;;10.20;82.90;;;;;;9180133;19;20026;-70
2023/12/31 15:18:59;;;;;;;10.02;1.88;;;10.10;82.90;;;;;;9180279;19;20048;-73
2023/12/31 15:22:08;;;;;;;11.00;2.63;;;10.10;82.80;;;;;;9177211;19;20771;-73
2023/12/31 15:25:13;;;;;;;10.05;3.50;;;10.10;82.80;;;;;;9177843;19;20413;-73
2023/12/31 15:28:21;;;;;;;10.82;3.05;;;10.00;82.80;;;;;;9178203;19;20015;-72
2023/12/31 15:31:27;;;;;;;9.80;3.80;;;10.00;82.80;;;;;;9178892;19;20057;-72
2023/12/31 15:34:37;;;;;;;7.97;3.15;;;10.00;82.90;;;;;;9178482;19;20032;-73
2023/12/31 15:37:43;;;;;;;11.45;3.97;;;9.90;82.80;;;;;;9180020;19;20018;-73
2023/12/31 15:41:07;;;;;;;9.18;4.38;;;9.90;82.90;;;;;;9176383;19;20023;-74
2023/12/31 15:44:16;;;;;;;7.95;3.10;;;9.90;82.90;;;;;;9174485;19;20107;-72
2023/12/31 15:47:31;;;;;;;10.77;4.13;;;9.90;82.90;;;;;;9179213;19;22116;-72
2023/12/31 15:50:40;;;;;;;8.65;4.05;;;9.90;82.90;;;;;;9173551;19;20018;-72
2023/12/31 15:53:52;;;;;;;13.05;5.07;;;9.90;82.90;;;;;;9175929;19;20022;-73
2023/12/31 15:56:57;;;;;;;15.07;4.38;;;9.90;82.90;;;;;;9177322;19;20491;-73
2023/12/31 16:00:06;;;;;;;20.15;7.13;;;9.80;82.80;;;;;;9177502;19;20021;-73
2023/12/31 16:03:16;;;;;;;27.60;10.05;;;9.80;82.80;;;;;;9174491;19;20506;-71
2023/12/31 16:06:27;;;;;;;62.67;30.17;;;9.70;82.80;;;;;;9175821;19;20479;-72
2023/12/31 16:09:32;;;;;;;16.08;7.38;;;9.70;82.80;;;;;;9175196;19;20030;-72
2023/12/31 16:12:40;;;;;;;13.07;3.78;;;9.70;82.80;;;;;;9175737;19;20015;-71
2023/12/31 16:15:46;;;;;;;17.83;6.63;;;9.70;82.90;;;;;;9177272;19;20480;-71
2023/12/31 16:18:53;;;;;;;38.25;15.52;;;9.70;82.80;;;;;;9179218;19;20019;-72
2023/12/31 16:22:01;;;;;;;10.85;4.43;;;9.70;82.80;;;;;;9178033;19;20015;-70
2023/12/31 16:25:09;;;;;;;8.73;3.65;;;9.70;82.80;;;;;;9176824;19;20021;-73
2023/12/31 16:28:15;;;;;;;16.38;6.03;;;9.60;82.80;;;;;;9178718;19;20484;-71
2023/12/31 16:31:23;;;;;;;17.75;5.72;;;9.60;82.70;;;;;;9176557;19;20022;-71